createdAt,value
2023-02-13T00:01:37.081Z,-2.21
2023-02-13T00:04:23.410Z,-2.24
2023-02-13T00:07:11.843Z,-2.15
2023-02-13T00:09:58.336Z,-2.20
2023-02-13T00:12:44.734Z,-2.20
2023-02-13T00:15:31.090Z,-2.20
2023-02-13T00:18:17.606Z,-2.25
2023-02-13T00:21:10.087Z,-2.39
2023-02-13T00:23:56.811Z,-2.81
2023-02-13T00:26:43.215Z,-2.34
2023-02-13T00:29:29.336Z,-2.61
2023-02-13T00:32:15.828Z,-2.47
2023-02-13T00:35:02.263Z,-2.17
2023-02-13T00:37:50.010Z,-2.30
2023-02-13T00:40:36.629Z,-2.46
2023-02-13T00:43:23.140Z,-2.57
2023-02-13T00:46:09.686Z,-2.44
2023-02-13T00:48:56.285Z,-2.56
2023-02-13T00:51:42.609Z,-2.66
2023-02-13T00:54:28.711Z,-2.61
2023-02-13T00:57:15.081Z,-2.71
2023-02-13T01:00:02.548Z,-2.70
2023-02-13T01:02:48.861Z,-2.69
2023-02-13T01:05:35.216Z,-2.94
2023-02-13T01:08:22.589Z,-2.60
2023-02-13T01:11:09.140Z,-2.86
2023-02-13T01:13:55.428Z,-2.85
2023-02-13T01:16:41.615Z,-2.72
2023-02-13T01:19:28.090Z,-2.91
2023-02-13T01:22:14.355Z,-3.04
2023-02-13T01:25:00.560Z,-2.73
2023-02-13T01:27:50.697Z,-2.75
2023-02-13T01:30:37.016Z,-2.92
2023-02-13T01:33:24.550Z,-2.94
2023-02-13T01:36:12.480Z,-2.71
2023-02-13T01:38:59.147Z,-2.55
2023-02-13T01:41:45.769Z,-2.95
2023-02-13T01:44:50.788Z,-2.75
2023-02-13T01:47:45.278Z,-2.79
2023-02-13T01:50:33.713Z,-3.12
2023-02-13T01:53:29.666Z,-3.12
2023-02-13T01:56:28.821Z,-3.00
2023-02-13T01:59:29.319Z,-3.03
2023-02-13T02:02:17.817Z,-2.99
2023-02-13T02:05:06.429Z,-3.05
2023-02-13T02:07:54.651Z,-2.88
2023-02-13T02:10:43.475Z,-2.97
2023-02-13T02:13:30.064Z,-3.00
2023-02-13T02:16:23.173Z,-2.99
2023-02-13T02:19:20.474Z,-3.13
2023-02-13T02:22:25.106Z,-3.13
2023-02-13T02:25:23.798Z,-2.97
2023-02-13T02:28:40.005Z,-3.22
2023-02-13T02:31:45.354Z,-3.10
2023-02-13T02:38:26.868Z,-3.36
2023-02-13T02:41:39.347Z,-3.27
2023-02-13T02:44:28.921Z,-3.09
2023-02-13T02:47:34.190Z,-3.19
2023-02-13T02:50:34.327Z,-3.23
2023-02-13T02:53:44.411Z,-3.22
2023-02-13T02:56:44.087Z,-3.31
2023-02-13T02:59:51.354Z,-3.25
2023-02-13T03:02:56.566Z,-3.37
2023-02-13T03:06:05.088Z,-3.19
2023-02-13T03:09:14.882Z,-2.94
2023-02-13T03:12:20.873Z,-2.90
2023-02-13T03:15:08.436Z,-2.98
2023-02-13T03:18:13.955Z,-3.13
2023-02-13T03:21:52.743Z,-3.17
2023-02-13T03:25:07.864Z,-3.20
2023-02-13T03:28:19.292Z,-3.24
2023-02-13T03:31:11.930Z,-3.33
2023-02-13T03:34:17.116Z,-3.41
2023-02-13T03:37:28.510Z,-3.59
2023-02-13T03:40:22.702Z,-3.16
2023-02-13T03:43:13.350Z,-2.89
2023-02-13T03:46:02.497Z,-2.46
2023-02-13T03:49:07.311Z,-2.40
2023-02-13T03:51:59.744Z,-2.43
2023-02-13T03:55:10.431Z,-2.22
2023-02-13T03:58:21.929Z,-2.31
2023-02-13T04:01:12.174Z,-2.19
2023-02-13T04:04:03.710Z,-2.43
2023-02-13T04:07:01.356Z,-2.06
2023-02-13T04:09:47.846Z,-2.13
2023-02-13T04:13:03.123Z,-2.21
2023-02-13T04:16:03.069Z,-2.29
2023-02-13T04:18:52.260Z,-2.07
2023-02-13T04:21:42.647Z,-1.97
2023-02-13T04:24:29.350Z,-2.05
2023-02-13T04:27:16.946Z,-2.17
2023-02-13T04:30:03.988Z,-2.30
2023-02-13T04:32:51.764Z,-2.37
2023-02-13T04:35:38.548Z,-2.17
2023-02-13T04:38:24.819Z,-2.11
2023-02-13T04:41:11.137Z,-2.10
2023-02-13T04:43:57.778Z,-2.17
2023-02-13T04:46:44.343Z,-1.94
2023-02-13T04:49:30.573Z,-2.03
2023-02-13T04:52:17.211Z,-2.08
2023-02-13T04:55:04.035Z,-2.01
2023-02-13T04:57:53.824Z,-1.99
2023-02-13T05:00:40.535Z,-2.23
2023-02-13T05:03:27.233Z,-2.10
2023-02-13T05:06:13.537Z,-1.93
2023-02-13T05:08:59.807Z,-1.88
2023-02-13T05:11:46.184Z,-2.04
2023-02-13T05:14:32.723Z,-2.20
2023-02-13T05:17:18.979Z,-2.33
2023-02-13T05:20:06.598Z,-1.92
2023-02-13T05:23:13.364Z,-1.86
2023-02-13T05:25:59.698Z,-2.33
2023-02-13T05:29:04.638Z,-1.90
2023-02-13T05:31:53.549Z,-2.05
2023-02-13T05:34:39.889Z,-1.95
2023-02-13T05:37:26.227Z,-2.28
2023-02-13T05:40:13.430Z,-2.30
2023-02-13T05:42:59.917Z,-2.37
2023-02-13T05:45:46.310Z,-2.38
2023-02-13T05:48:33.348Z,-2.26
2023-02-13T05:51:20.547Z,-2.69
2023-02-13T05:54:06.878Z,-2.38
2023-02-13T05:56:53.361Z,-2.12
2023-02-13T05:59:39.729Z,-2.33
2023-02-13T06:02:26.119Z,-2.25
2023-02-13T06:05:12.736Z,-2.41
2023-02-13T06:07:59.288Z,-2.27
2023-02-13T06:10:49.256Z,-2.33
2023-02-13T06:13:35.860Z,-2.23
2023-02-13T06:16:22.729Z,-2.39
2023-02-13T06:19:09.401Z,-2.44
2023-02-13T06:21:56.133Z,-2.48
2023-02-13T06:24:42.746Z,-2.37
2023-02-13T06:27:28.872Z,-2.41
2023-02-13T06:30:16.392Z,-2.33
2023-02-13T06:33:02.983Z,-2.60
2023-02-13T06:35:49.548Z,-2.38
2023-02-13T06:38:35.843Z,-2.34
2023-02-13T06:41:22.332Z,-2.52
2023-02-13T06:44:08.637Z,-2.45
2023-02-13T06:46:54.840Z,-2.50
2023-02-13T06:49:41.281Z,-2.72
2023-02-13T06:52:30.252Z,-2.54
2023-02-13T06:55:17.241Z,-2.74
2023-02-13T06:58:03.561Z,-2.45
2023-02-13T07:00:51.615Z,-2.79
2023-02-13T07:03:37.902Z,-2.65
2023-02-13T07:06:24.547Z,-2.67
2023-02-13T07:09:13.339Z,-2.65
2023-02-13T07:12:03.261Z,-2.28
2023-02-13T07:14:49.559Z,-2.22
2023-02-13T07:17:36.200Z,-2.51
2023-02-13T07:20:22.440Z,-2.17
2023-02-13T07:23:08.640Z,-2.12
2023-02-13T07:25:54.993Z,-2.22
2023-02-13T07:28:41.125Z,-2.03
2023-02-13T07:31:27.534Z,-2.06
2023-02-13T07:34:14.364Z,-1.90
2023-02-13T07:37:00.728Z,-2.00
2023-02-13T07:39:47.030Z,-1.95
2023-02-13T07:42:34.915Z,-1.78
2023-02-13T07:45:21.298Z,-1.58
2023-02-13T07:48:07.617Z,-1.41
2023-02-13T07:50:54.990Z,-1.43
2023-02-13T07:53:41.499Z,-1.17
2023-02-13T07:56:28.164Z,-1.38
2023-02-13T07:59:14.394Z,-1.16
2023-02-13T08:02:00.930Z,-1.18
2023-02-13T08:04:47.497Z,-1.24
2023-02-13T08:07:34.936Z,-0.93
2023-02-13T08:10:40.150Z,-1.05
2023-02-13T08:13:27.208Z,-1.14
2023-02-13T08:16:13.692Z,-0.43
2023-02-13T08:19:00.066Z,-0.86
2023-02-13T08:21:46.641Z,-0.25
2023-02-13T08:24:33.328Z,-0.45
2023-02-13T08:27:19.928Z,-0.36
2023-02-13T08:30:07.593Z,-0.22
2023-02-13T08:32:54.668Z,-0.08
2023-02-13T08:35:40.903Z,0.02
2023-02-13T08:38:27.133Z,0.07
2023-02-13T08:41:14.075Z,0.31
2023-02-13T08:44:00.183Z,0.35
2023-02-13T08:46:46.375Z,0.73
2023-02-13T08:49:33.848Z,0.79
2023-02-13T08:52:20.416Z,0.78
2023-02-13T08:55:06.944Z,0.67
2023-02-13T08:57:53.243Z,0.82
2023-02-13T09:00:39.481Z,0.91
2023-02-13T09:03:26.021Z,1.05
2023-02-13T09:06:12.717Z,1.34
2023-02-13T09:08:59.077Z,1.25
2023-02-13T09:11:45.428Z,1.32
2023-02-13T09:14:31.918Z,1.37
2023-02-13T09:17:19.678Z,1.59
2023-02-13T09:20:06.868Z,1.54
2023-02-13T09:22:54.927Z,1.33
2023-02-13T09:25:41.621Z,1.48
2023-02-13T09:28:29.766Z,1.42
2023-02-13T09:31:19.197Z,1.28
2023-02-13T09:34:05.849Z,1.11
2023-02-13T09:36:53.368Z,1.61
2023-02-13T09:39:39.721Z,1.79
2023-02-13T09:42:31.416Z,2.00
2023-02-13T09:45:21.506Z,2.09
2023-02-13T09:48:15.629Z,2.24
2023-02-13T09:51:02.289Z,2.44
2023-02-13T09:54:02.358Z,2.35
2023-02-13T09:57:00.387Z,2.67
2023-02-13T09:59:57.123Z,2.90
2023-02-13T10:02:58.975Z,3.14
2023-02-13T10:05:59.908Z,3.24
2023-02-13T10:09:13.318Z,3.53
2023-02-13T10:12:29.991Z,3.46
2023-02-13T10:15:16.454Z,3.92
2023-02-13T10:18:10.662Z,4.10
2023-02-13T10:21:02.263Z,4.16
2023-02-13T10:23:57.253Z,4.04
2023-02-13T10:26:46.904Z,4.30
2023-02-13T10:30:02.590Z,4.53
2023-02-13T10:33:19.054Z,4.68
2023-02-13T10:36:27.942Z,4.82
2023-02-13T10:39:24.261Z,4.91
2023-02-13T10:42:27.689Z,4.92
2023-02-13T10:45:20.671Z,5.00
2023-02-13T10:48:44.726Z,5.04
2023-02-13T10:51:49.681Z,5.34
2023-02-13T10:55:01.532Z,5.41
2023-02-13T10:58:03.982Z,5.55
2023-02-13T11:00:56.684Z,5.72
2023-02-13T11:03:42.973Z,5.76
2023-02-13T11:06:30.182Z,5.75
2023-02-13T11:09:16.891Z,5.95
2023-02-13T11:12:30.273Z,6.23
2023-02-13T11:15:29.364Z,6.30
2023-02-13T11:18:21.053Z,6.41
2023-02-13T11:21:19.103Z,6.33
2023-02-13T11:24:05.847Z,6.45
2023-02-13T11:27:02.708Z,6.32
2023-02-13T11:29:55.010Z,6.54
2023-02-13T11:32:41.607Z,6.36
2023-02-13T11:35:28.265Z,6.73
2023-02-13T11:38:20.660Z,6.77
2023-02-13T11:41:12.958Z,6.63
2023-02-13T11:44:04.727Z,6.61
2023-02-13T11:46:53.614Z,6.83
2023-02-13T11:49:46.109Z,6.95
2023-02-13T11:52:35.948Z,7.09
2023-02-13T11:55:34.327Z,7.20
2023-02-13T11:58:27.791Z,7.27
2023-02-13T12:01:20.072Z,7.27
2023-02-13T12:04:17.840Z,7.13
2023-02-13T12:07:15.969Z,6.99
2023-02-13T12:10:06.207Z,7.53
2023-02-13T12:13:11.144Z,7.57
2023-02-13T12:16:05.724Z,7.51
2023-02-13T12:18:55.838Z,7.49
2023-02-13T12:22:15.527Z,7.45
2023-02-13T12:25:14.091Z,7.71
2023-02-13T12:28:45.221Z,7.94
2023-02-13T12:31:58.236Z,8.04
2023-02-13T12:34:54.000Z,8.15
2023-02-13T12:37:59.236Z,8.31
2023-02-13T12:41:04.651Z,8.63
2023-02-13T12:44:10.300Z,8.63
2023-02-13T12:47:17.771Z,8.85
2023-02-13T12:50:22.412Z,9.00
2023-02-13T12:53:21.803Z,8.79
2023-02-13T12:56:21.743Z,9.25
2023-02-13T12:59:43.476Z,9.54
2023-02-13T13:02:56.393Z,9.41
2023-02-13T13:05:58.751Z,9.53
2023-02-13T13:09:19.338Z,9.76
2023-02-13T13:12:45.269Z,9.80
2023-02-13T13:15:48.128Z,9.86
2023-02-13T13:18:49.427Z,9.57
2023-02-13T13:21:48.042Z,9.52
2023-02-13T13:24:48.778Z,9.74
2023-02-13T13:27:44.233Z,9.64
2023-02-13T13:30:36.021Z,9.65
2023-02-13T13:33:25.244Z,9.77
2023-02-13T13:36:30.312Z,9.74
2023-02-13T13:39:35.362Z,9.67
2023-02-13T13:42:24.881Z,9.63
2023-02-13T13:45:33.114Z,9.89
2023-02-13T13:48:47.189Z,9.87
2023-02-13T13:51:34.034Z,9.41
2023-02-13T13:54:25.593Z,9.98
2023-02-13T13:57:12.982Z,9.81
2023-02-13T14:00:24.674Z,9.82
2023-02-13T14:03:33.321Z,9.86
2023-02-13T14:06:25.238Z,9.87
2023-02-13T14:09:27.249Z,9.72
2023-02-13T14:12:29.182Z,9.73
2023-02-13T14:15:33.996Z,9.62
2023-02-13T14:18:23.681Z,9.16
2023-02-13T14:21:10.129Z,9.29
2023-02-13T14:24:00.763Z,8.73
2023-02-13T14:27:04.711Z,8.99
2023-02-13T14:29:52.220Z,9.06
2023-02-13T14:32:41.111Z,9.06
2023-02-13T14:35:31.118Z,9.01
2023-02-13T14:38:24.665Z,8.89
2023-02-13T14:41:42.410Z,8.88
2023-02-13T14:44:29.327Z,9.16
2023-02-13T14:47:29.656Z,8.84
2023-02-13T14:50:21.929Z,8.99
2023-02-13T14:53:18.893Z,8.66
2023-02-13T14:56:11.740Z,8.77
2023-02-13T14:59:10.262Z,8.84
2023-02-13T15:02:07.540Z,8.87
2023-02-13T15:04:59.754Z,8.54
2023-02-13T15:08:08.568Z,8.86
2023-02-13T15:10:56.166Z,8.95
2023-02-13T15:13:42.827Z,8.67
2023-02-13T15:16:30.196Z,8.66
2023-02-13T15:19:18.601Z,8.77
2023-02-13T15:22:06.550Z,8.77
2023-02-13T15:24:53.086Z,8.37
2023-02-13T15:27:44.330Z,8.49
2023-02-13T15:30:36.303Z,8.51
2023-02-13T15:33:24.798Z,8.35
2023-02-13T15:36:25.354Z,8.42
2023-02-13T15:39:18.556Z,8.38
2023-02-13T15:42:05.144Z,8.33
2023-02-13T15:44:56.973Z,8.24
2023-02-13T15:47:45.498Z,7.88
2023-02-13T15:50:35.877Z,8.04
2023-02-13T15:53:22.605Z,7.67
2023-02-13T15:56:14.853Z,7.60
2023-02-13T15:59:02.793Z,7.43
2023-02-13T16:01:51.802Z,7.44
2023-02-13T16:04:40.140Z,7.39
2023-02-13T16:07:26.587Z,7.46
2023-02-13T16:10:34.630Z,7.31
2023-02-13T16:13:21.002Z,6.97
2023-02-13T16:16:11.072Z,7.03
2023-02-13T16:18:57.767Z,6.35
2023-02-13T16:21:48.465Z,6.72
2023-02-13T16:24:36.350Z,6.73
2023-02-13T16:27:27.457Z,6.40
2023-02-13T16:30:23.483Z,6.48
2023-02-13T16:33:15.748Z,6.35
2023-02-13T16:36:11.421Z,6.16
2023-02-13T16:38:57.853Z,5.87
2023-02-13T16:41:44.176Z,5.74
2023-02-13T16:44:32.530Z,5.58
2023-02-13T16:47:25.220Z,5.96
2023-02-13T16:50:16.294Z,5.65
2023-02-13T16:53:04.074Z,5.34
2023-02-13T16:56:01.257Z,5.38
2023-02-13T16:58:47.973Z,5.46
2023-02-13T17:01:38.277Z,5.06
2023-02-13T17:04:25.213Z,5.18
2023-02-13T17:07:14.027Z,5.03
2023-02-13T17:10:06.753Z,4.90
2023-02-13T17:12:55.178Z,4.80
2023-02-13T17:15:43.940Z,4.69
2023-02-13T17:18:30.475Z,4.30
2023-02-13T17:21:16.780Z,4.33
2023-02-13T17:24:03.810Z,4.40
2023-02-13T17:26:50.350Z,4.44
2023-02-13T17:29:37.105Z,4.38
2023-02-13T17:32:26.113Z,4.45
2023-02-13T17:35:14.132Z,4.42
2023-02-13T17:38:00.768Z,4.09
2023-02-13T17:40:47.560Z,3.97
2023-02-13T17:43:33.917Z,3.86
2023-02-13T17:46:20.256Z,3.87
2023-02-13T17:49:06.763Z,3.89
2023-02-13T17:51:53.029Z,3.67
2023-02-13T17:54:39.146Z,3.59
2023-02-13T17:57:25.708Z,3.44
2023-02-13T18:00:12.223Z,3.34
2023-02-13T18:03:00.587Z,3.51
2023-02-13T18:05:48.830Z,3.23
2023-02-13T18:08:35.112Z,3.21
2023-02-13T18:11:21.305Z,3.17
2023-02-13T18:14:07.817Z,3.10
2023-02-13T18:16:54.020Z,3.18
2023-02-13T18:19:40.710Z,3.09
2023-02-13T18:22:27.209Z,2.89
2023-02-13T18:25:13.952Z,2.99
2023-02-13T18:28:00.122Z,2.94
2023-02-13T18:30:46.831Z,2.89
2023-02-13T18:33:33.216Z,2.96
2023-02-13T18:36:19.712Z,3.02
2023-02-13T18:39:07.953Z,2.71
2023-02-13T18:41:54.381Z,2.62
2023-02-13T18:44:41.225Z,2.60
2023-02-13T18:47:27.750Z,2.78
2023-02-13T18:50:14.428Z,2.80
2023-02-13T18:53:00.896Z,2.38
2023-02-13T18:55:47.443Z,2.49
2023-02-13T18:58:34.493Z,2.42
2023-02-13T19:01:21.755Z,2.37
2023-02-13T19:04:08.202Z,2.10
2023-02-13T19:06:54.732Z,2.07
2023-02-13T19:09:41.073Z,1.89
2023-02-13T19:12:27.315Z,1.84
2023-02-13T19:15:13.957Z,1.53
2023-02-13T19:18:00.118Z,1.40
2023-02-13T19:20:46.583Z,1.44
2023-02-13T19:23:34.005Z,1.65
2023-02-13T19:26:25.724Z,1.75
2023-02-13T19:29:12.192Z,1.80
2023-02-13T19:31:58.501Z,1.51
2023-02-13T19:34:45.878Z,1.59
2023-02-13T19:37:43.017Z,1.25
2023-02-13T19:40:30.454Z,1.36
2023-02-13T19:43:16.548Z,1.52
2023-02-13T19:46:05.033Z,1.27
2023-02-13T19:48:51.810Z,0.96
2023-02-13T19:51:38.506Z,1.12
2023-02-13T19:54:25.333Z,0.92
2023-02-13T19:57:12.057Z,1.02
2023-02-13T20:00:01.708Z,0.79
2023-02-13T20:03:03.746Z,0.64
2023-02-13T20:05:50.078Z,0.76
2023-02-13T20:08:36.785Z,0.76
2023-02-13T20:11:23.088Z,0.87
2023-02-13T20:14:14.462Z,0.72
2023-02-13T20:17:01.206Z,0.55
2023-02-13T20:19:47.616Z,0.66
2023-02-13T20:22:34.038Z,0.84
2023-02-13T20:25:22.013Z,0.79
2023-02-13T20:28:11.210Z,0.76
2023-02-13T20:30:58.166Z,0.54
2023-02-13T20:33:46.118Z,0.56
2023-02-13T20:36:33.446Z,0.52
2023-02-13T20:39:19.640Z,0.45
2023-02-13T20:42:06.592Z,0.19
2023-02-13T20:44:53.402Z,0.22
2023-02-13T20:47:41.766Z,0.13
2023-02-13T20:50:27.934Z,0.11
2023-02-13T20:53:14.267Z,-0.15
2023-02-13T20:56:13.448Z,-0.47
2023-02-13T20:59:00.613Z,-0.08
2023-02-13T21:01:46.963Z,-0.30
2023-02-13T21:04:34.225Z,-0.27
2023-02-13T21:07:20.373Z,-0.34
2023-02-13T21:10:07.141Z,-0.32
2023-02-13T21:12:53.628Z,-0.17
2023-02-13T21:15:40.027Z,-0.40
2023-02-13T21:18:26.276Z,-0.39
2023-02-13T21:21:13.531Z,-0.30
2023-02-13T21:24:06.933Z,-0.33
2023-02-13T21:26:54.127Z,-0.33
2023-02-13T21:29:40.510Z,-0.52
2023-02-13T21:32:26.769Z,-0.85
2023-02-13T21:35:13.022Z,-0.63
2023-02-13T21:37:59.412Z,-0.72
2023-02-13T21:40:45.845Z,-0.80
2023-02-13T21:43:37.506Z,-0.73
2023-02-13T21:46:32.332Z,-0.91
2023-02-13T21:49:19.123Z,-0.79
2023-02-13T21:52:05.443Z,-1.04
2023-02-13T21:54:51.617Z,-0.98
2023-02-13T21:57:38.512Z,-0.90
2023-02-13T22:00:25.120Z,-0.82
2023-02-13T22:03:11.667Z,-0.88
2023-02-13T22:05:57.973Z,-0.78
2023-02-13T22:08:44.320Z,-1.09
2023-02-13T22:11:31.870Z,-1.01
2023-02-13T22:14:18.273Z,-1.05
2023-02-13T22:17:04.981Z,-0.71
2023-02-13T22:19:51.561Z,-0.75
2023-02-13T22:22:37.803Z,-0.91
2023-02-13T22:25:24.407Z,-0.74
2023-02-13T22:28:10.961Z,-1.13
2023-02-13T22:30:57.688Z,-0.86
2023-02-13T22:33:47.606Z,-0.75
2023-02-13T22:36:40.478Z,-0.81
2023-02-13T22:39:26.945Z,-1.08
2023-02-13T22:42:14.095Z,-0.95
2023-02-13T22:45:00.645Z,-0.98
2023-02-13T22:47:46.805Z,-1.08
2023-02-13T22:50:34.180Z,-1.17
2023-02-13T22:53:20.807Z,-1.40
2023-02-13T22:56:08.253Z,-1.15
2023-02-13T22:58:54.797Z,-1.43
2023-02-13T23:01:41.043Z,-1.42
2023-02-13T23:04:27.517Z,-1.38
2023-02-13T23:07:18.150Z,-1.15
2023-02-13T23:10:04.888Z,-1.51
2023-02-13T23:12:51.277Z,-1.40
2023-02-13T23:15:38.174Z,-1.45
2023-02-13T23:18:24.788Z,-1.62
2023-02-13T23:21:11.126Z,-1.45
2023-02-13T23:23:57.866Z,-1.74
2023-02-13T23:26:44.172Z,-1.56
2023-02-13T23:29:30.409Z,-1.49
2023-02-13T23:32:17.028Z,-1.41
2023-02-13T23:35:03.243Z,-1.43
2023-02-13T23:37:49.674Z,-1.41
2023-02-13T23:40:35.952Z,-1.57
2023-02-13T23:43:22.204Z,-1.93
2023-02-13T23:46:08.639Z,-1.74
2023-02-13T23:48:55.045Z,-1.75
2023-02-13T23:51:41.423Z,-1.84
2023-02-13T23:54:28.227Z,-1.91
2023-02-13T23:57:14.424Z,-1.94
